Airports Romania Sibiu International Airport

Sibiu International Airport (LRSB / SBZ)

Facts about Sibiu International Airport

Name Sibiu International Airport
City Sibiu
Country Romania
ICAO code LRSB
IATA code SBZ
Elevation 455.9808 meters (1496 feet)

Weather

METAR

Metar data retrieved Saturday, 20 July 2024 at 00:55 UTC (20 minutes ago)

LRSB 200030Z 13004KT 9999 -RA FEW033TCU BKN080 20/19 Q1014

Live traffic

Navigraph Charts (account required)